Portada
METAR-TAF:

METAR-TAF

Aeropuertos :

Aeropuerto Juan Pablo II

Ponta Delgada, Azores, Portugal

latitud: 37-44N, longitud: 025-42W, altitud: 71 m

Observación

El informe se hizo hace 20 minutos, a las 06:00 UTC
Viento 7 kt del noreste
Temperatura 13°C
Humedad 72%
Presión 1035 hPa
Visibilidad 10 km o más
Escasas nubes a una altura de 2000 ft
Cielo nuboso a una altura de 3500 ft

METAR: LPPD 270600Z 05007KT 9999 FEW020 BKN035 13/08 Q1035

Hora: 05:20 (06:20 UTC)

Pronóstico

El informe se hizo hace 1 hora y 20 minutos, a las 05:00 UTC
Pronóstico válido del 27 a las 06 UTC al 28 a las 06 UTC
Viento 10 kt del noreste
Visibilidad 10 km o más
Nubes dispersas a una altura de 2500 ft
Temporalmente
del 27 a las 06 UTC al 28 a las 06 UTC
Cielo nuboso a una altura de 3500 ft
Evolucionando progresivamente
del 27 a las 09 UTC al 27 a las 12 UTC
Viento 5 kt con dirección variable

TAF: LPPD 270500Z 2706/2806 05010KT 9999 SCT025 TEMPO 2706/2806 BKN035 BECMG 2709/2712 VRB05KT

Observaciones y pronósticos meteorológicos de más de 4000 aeropuertos (mensajes METAR y TAF).

Los puntos amarillos y rojos representan las estaciones disponibles.

Ponga el ratón en el punto deseado para ver el nombre de la estación.

Haga clic para ver las observaciones y los pronósticos meteorológicos.

Para cambiar el mapa : haga clic en los botones verdes con una cruz de color negro para hacer un zoom, en el botón verde con un guión para alejar o en las flechas verdes para mapas adyacentes.


METAR-TAF: